Time;durP1;ratioP1;P1;durP2;ratioP2;P2;SDS_P1;SDS_P2;PMS_P1;PMS_P2;Temp;Humidity;BMP_temperature;BMP_pressure;BME280_temperature;BME280_humidity;BME280_pressure;Samples;Min_cycle;Max_cycle;Signal;HPM_P1;HPM_P2
2021/10/25 00:01:42;;;;;;;0.70;0.60;;;;;;;5.49;94.93;101504.59;5067084;28;20182;-72
2021/10/25 00:04:11;;;;;;;0.60;0.60;;;;;;;5.50;94.63;101511.44;5049747;28;20433;-72
2021/10/25 00:06:38;;;;;;;1.35;1.25;;;;;;;5.47;94.71;101508.94;5054010;28;20190;-72
2021/10/25 00:09:05;;;;;;;0.60;0.57;;;;;;;5.46;94.97;101502.91;5086952;28;20283;-72
2021/10/25 00:11:33;;;;;;;0.63;0.60;;;;;;;5.75;93.47;101502.38;5053823;28;20476;-72
2021/10/25 00:14:00;;;;;;;0.60;0.60;;;;;;;5.73;93.12;101508.44;5053275;28;20783;-72
2021/10/25 00:16:27;;;;;;;0.60;0.60;;;;;;;5.80;93.09;101504.88;5054809;28;20260;-71
2021/10/25 00:18:54;;;;;;;0.60;0.60;;;;;;;5.97;92.95;101502.00;5054111;28;20186;-72
2021/10/25 00:21:26;;;;;;;0.60;0.60;;;;;;;6.07;91.55;101508.66;5054917;28;20406;-72
2021/10/25 00:23:52;;;;;;;0.60;0.60;;;;;;;6.14;91.45;101510.25;5054713;28;20590;-72
2021/10/25 00:26:19;;;;;;;0.60;0.60;;;;;;;6.14;91.92;101509.41;5069637;28;20939;-72
2021/10/25 00:28:48;;;;;;;0.60;0.60;;;;;;;6.03;92.20;101507.06;5068936;28;20492;-72
2021/10/25 00:31:15;;;;;;;0.60;0.60;;;;;;;6.01;91.53;101513.97;5053800;28;20416;-72
2021/10/25 00:33:42;;;;;;;0.70;0.70;;;;;;;6.01;91.65;101513.97;5069969;28;20439;-72
2021/10/25 00:36:12;;;;;;;0.60;0.60;;;;;;;6.01;92.51;101512.22;5081937;28;20507;-71
2021/10/25 00:38:43;;;;;;;0.60;0.60;;;;;;;6.05;92.43;101502.72;5084369;28;20476;-71
2021/10/25 00:41:16;;;;;;;0.60;0.60;;;;;;;6.11;91.40;101501.75;5064976;28;20824;-72
2021/10/25 00:43:56;;;;;;;0.60;0.60;;;;;;;5.99;91.20;101506.25;5068902;28;20460;-71
2021/10/25 00:46:31;;;;;;;0.60;0.60;;;;;;;6.15;91.93;101501.66;5052730;28;20447;-71
2021/10/25 00:49:03;;;;;;;0.60;0.50;;;;;;;6.18;91.04;101493.00;5069836;28;20523;-72
2021/10/25 00:51:38;;;;;;;0.60;0.60;;;;;;;6.15;91.71;101499.06;5085642;28;20445;-72
2021/10/25 00:54:08;;;;;;;0.60;0.60;;;;;;;6.02;91.16;101489.88;5053449;28;20474;-72
2021/10/25 00:56:47;;;;;;;0.60;0.60;;;;;;;6.03;92.17;101489.03;5085176;28;20454;-72
2021/10/25 00:59:17;;;;;;;1.47;1.37;;;;;;;6.10;91.76;101495.75;5068784;28;20452;-72
2021/10/25 01:01:47;;;;;;;0.70;0.60;;;;;;;5.96;92.21;101497.75;5086216;28;20452;-73
2021/10/25 01:04:25;;;;;;;0.60;0.50;;;;;;;6.07;91.60;101497.53;5053041;28;20446;-71
2021/10/25 01:06:58;;;;;;;0.60;0.60;;;;;;;6.17;91.21;101489.59;5085023;28;20488;-72
2021/10/25 01:09:35;;;;;;;0.60;0.60;;;;;;;6.15;91.14;101488.78;5067958;28;20431;-72
2021/10/25 01:12:10;;;;;;;0.60;0.50;;;;;;;6.14;91.40;101488.78;5085771;28;20450;-72
2021/10/25 01:14:45;;;;;;;0.60;0.60;;;;;;;6.21;91.26;101490.38;5084715;28;20669;-72
2021/10/25 01:17:16;;;;;;;0.60;0.60;;;;;;;6.16;91.27;101493.03;5052393;28;20917;-72
2021/10/25 01:19:55;;;;;;;0.60;0.50;;;;;;;6.11;91.30;101494.84;5082170;28;20987;-72
2021/10/25 01:22:27;;;;;;;0.60;0.60;;;;;;;6.14;92.03;101489.63;5053843;28;20847;-72
2021/10/25 01:25:01;;;;;;;0.60;0.60;;;;;;;5.97;91.94;101483.97;5081410;28;20456;-72
2021/10/25 01:27:33;;;;;;;0.83;0.83;;;;;;;5.87;92.84;101482.44;5065025;28;20455;-73
2021/10/25 01:30:05;;;;;;;1.30;1.00;;;;;;;5.91;92.66;101491.81;5067871;28;20475;-72
2021/10/25 01:32:37;;;;;;;0.70;0.70;;;;;;;5.84;92.92;101485.91;5083709;28;20814;-72
2021/10/25 01:35:18;;;;;;;0.60;0.60;;;;;;;5.97;91.93;101481.41;5049531;28;20455;-72
2021/10/25 01:37:50;;;;;;;0.67;0.67;;;;;;;5.88;92.63;101489.25;5068094;28;20566;-72
2021/10/25 01:40:20;;;;;;;0.60;0.60;;;;;;;5.96;92.11;101484.88;5085339;28;21036;-72
2021/10/25 01:42:47;;;;;;;0.60;0.60;;;;;;;5.95;92.88;101483.16;5051776;28;20503;-72
2021/10/25 01:45:14;;;;;;;0.60;0.60;;;;;;;5.92;92.62;101476.31;5067538;28;20432;-72
2021/10/25 01:47:41;;;;;;;0.60;0.57;;;;;;;5.95;92.83;101472.84;5067984;28;20444;-72
2021/10/25 01:50:10;;;;;;;0.60;0.50;;;;;;;5.92;92.93;101473.72;5068615;28;20446;-72
2021/10/25 01:52:38;;;;;;;0.70;0.60;;;;;;;5.77;92.95;101477.44;5051843;28;20213;-72
2021/10/25 01:55:07;;;;;;;0.60;0.60;;;;;;;5.68;93.10;101477.63;5050870;28;20479;-72
2021/10/25 01:57:34;;;;;;;0.60;0.60;;;;;;;5.70;93.95;101473.28;5085420;28;20506;-72
2021/10/25 02:00:02;;;;;;;0.70;0.63;;;;;;;5.71;92.97;101469.00;5052233;28;20498;-72
2021/10/25 02:02:44;;;;;;;0.60;0.57;;;;;;;5.58;94.11;101468.38;5067502;28;20434;-72
2021/10/25 02:05:33;;;;;;;0.70;0.60;;;;;;;5.64;93.86;101468.28;5048663;28;20983;-72
2021/10/25 02:08:01;;;;;;;0.60;0.60;;;;;;;5.64;93.70;101463.13;5051059;28;20463;-72
2021/10/25 02:10:38;;;;;;;0.70;0.70;;;;;;;5.59;93.82;101464.94;5051577;28;20451;-72
2021/10/25 02:13:10;;;;;;;0.60;0.50;;;;;;;5.59;93.48;101464.94;5050924;28;20498;-72
2021/10/25 02:15:37;;;;;;;0.60;0.60;;;;;;;5.53;93.90;101462.47;5048303;28;20457;-72
2021/10/25 02:18:05;;;;;;;0.60;0.50;;;;;;;5.62;93.74;101459.72;5067728;28;20777;-72
2021/10/25 02:20:33;;;;;;;0.60;0.60;;;;;;;5.52;93.91;101453.06;5067318;28;20213;-72
2021/10/25 02:23:02;;;;;;;0.63;0.63;;;;;;;5.58;93.80;101452.91;5084869;28;20891;-73
2021/10/25 02:25:33;;;;;;;0.60;0.60;;;;;;;5.58;93.69;101452.91;5084568;28;20516;-72
2021/10/25 02:28:00;;;;;;;0.60;0.60;;;;;;;5.57;93.42;101453.81;5067984;28;20439;-72
2021/10/25 02:30:27;;;;;;;0.60;0.60;;;;;;;5.46;94.26;101453.16;5050781;28;20501;-72
2021/10/25 02:32:59;;;;;;;0.60;0.60;;;;;;;5.60;94.11;101456.31;5051365;28;20448;-72
2021/10/25 02:35:28;;;;;;;0.60;0.50;;;;;;;5.53;93.45;101449.59;5051720;28;20531;-72
2021/10/25 02:37:58;;;;;;;0.60;0.60;;;;;;;5.45;94.21;101447.16;5034317;28;20791;-72
2021/10/25 02:40:29;;;;;;;0.60;0.60;;;;;;;5.40;94.71;101448.13;5051135;28;20555;-72
2021/10/25 02:42:59;;;;;;;0.60;0.60;;;;;;;5.27;94.82;101443.22;5064502;28;20495;-72
2021/10/25 02:45:27;;;;;;;0.60;0.60;;;;;;;5.23;95.67;101440.72;5061114;28;20189;-72
2021/10/25 02:47:55;;;;;;;0.60;0.53;;;;;;;5.33;95.17;101437.94;5051324;28;20240;-72
2021/10/25 02:50:23;;;;;;;0.60;0.60;;;;;;;5.43;94.88;101440.34;5051427;28;20440;-72
2021/10/25 02:52:50;;;;;;;0.60;0.60;;;;;;;5.42;94.64;101433.50;5051337;28;20214;-72
2021/10/25 02:55:18;;;;;;;0.60;0.50;;;;;;;5.59;94.10;101436.63;5067477;28;20784;-72
2021/10/25 02:57:47;;;;;;;0.60;0.60;;;;;;;5.64;93.48;101426.22;5051360;28;20200;-72
2021/10/25 03:00:16;;;;;;;0.60;0.60;;;;;;;5.58;93.74;101435.78;5069667;28;20482;-72
2021/10/25 03:02:44;;;;;;;0.60;0.50;;;;;;;5.61;94.02;101423.69;5054859;28;20955;-72
2021/10/25 03:05:14;;;;;;;0.67;0.60;;;;;;;5.59;93.42;101428.88;5088622;28;20227;-71
2021/10/25 03:07:43;;;;;;;0.65;0.65;;;;;;;5.64;93.83;101424.50;5087593;28;20460;-71
2021/10/25 03:10:11;;;;;;;0.60;0.57;;;;;;;5.68;93.29;101426.13;5071483;28;20522;-72
2021/10/25 03:12:40;;;;;;;1.47;0.90;;;;;;;5.77;92.21;101428.50;5055123;28;20444;-72
2021/10/25 03:15:08;;;;;;;0.60;0.60;;;;;;;5.70;92.37;101420.94;5054075;28;20436;-71
2021/10/25 03:17:35;;;;;;;1.15;1.05;;;;;;;5.65;92.99;101426.19;5070859;28;20197;-72
2021/10/25 03:20:20;;;;;;;0.60;0.50;;;;;;;5.49;93.60;101422.22;5084845;28;20315;-72
2021/10/25 03:22:47;;;;;;;0.60;0.60;;;;;;;5.46;93.68;101427.41;5054600;28;20499;-71
2021/10/25 03:25:17;;;;;;;0.60;0.60;;;;;;;5.63;93.10;101416.78;5071141;28;20429;-72
2021/10/25 03:27:49;;;;;;;0.60;0.60;;;;;;;5.65;92.99;101417.63;5070599;28;20471;-72
2021/10/25 03:30:18;;;;;;;0.60;0.50;;;;;;;5.56;92.95;101413.47;5053214;28;20243;-72
2021/10/25 03:32:50;;;;;;;0.60;0.60;;;;;;;5.49;92.67;101411.94;5087401;28;20189;-72
2021/10/25 03:35:49;;;;;;;1.50;1.40;;;;;;;5.53;93.38;101416.97;5036075;28;20206;-73
2021/10/25 03:38:18;;;;;;;0.60;0.60;;;;;;;5.53;93.42;101411.81;5070789;28;20218;-71
2021/10/25 03:40:49;;;;;;;1.50;1.40;;;;;;;5.57;93.10;101412.63;5070429;28;20202;-72
2021/10/25 03:43:20;;;;;;;0.60;0.60;;;;;;;5.46;93.04;101411.97;5070206;28;20685;-72
2021/10/25 03:48:30;;;;;;;0.60;0.60;;;;;;;5.31;93.83;101405.38;5055268;28;20941;-72
2021/10/25 03:50:57;;;;;;;0.60;0.60;;;;;;;5.11;94.62;101403.16;5070260;28;20192;-72
2021/10/25 03:54:19;;;;;;;1.35;0.90;;;;;;;5.19;94.59;101405.59;5070641;28;20210;-72
2021/10/25 04:28:00;;;;;;;0.60;0.60;;;;;;;5.28;93.81;101390.00;5069367;28;20205;-72
2021/10/25 04:30:31;;;;;;;0.60;0.60;;;;;;;5.29;93.75;101396.84;5086073;28;20979;-73
2021/10/25 04:33:02;;;;;;;0.60;0.60;;;;;;;5.30;93.49;101389.09;5052567;28;20280;-73
2021/10/25 04:35:53;;;;;;;0.60;0.60;;;;;;;5.19;93.73;101393.59;5078116;28;20292;-72
2021/10/25 04:38:52;;;;;;;0.60;0.60;;;;;;;5.15;94.12;101397.09;5048334;28;20226;-73
2021/10/25 04:41:19;;;;;;;0.60;0.60;;;;;;;5.27;93.58;101396.03;5084387;28;20475;-73
2021/10/25 04:43:47;;;;;;;0.60;0.60;;;;;;;5.26;93.40;101389.19;5067587;28;20229;-73
2021/10/25 04:46:14;;;;;;;0.60;0.60;;;;;;;5.26;93.41;101384.03;5067509;28;20197;-73
2021/10/25 04:48:43;;;;;;;0.60;0.60;;;;;;;5.15;93.77;101382.50;5068677;28;20292;-73
2021/10/25 04:51:39;;;;;;;0.60;0.60;;;;;;;5.12;93.33;101384.28;5069784;28;20251;-73
2021/10/25 04:54:19;;;;;;;0.60;0.60;;;;;;;5.03;94.17;101387.03;5069303;28;20227;-74
2021/10/25 04:56:53;;;;;;;0.60;0.50;;;;;;;5.03;94.86;101384.47;5055761;28;20196;-73
2021/10/25 04:59:21;;;;;;;0.60;0.60;;;;;;;5.08;93.58;101380.06;5068138;28;20225;-73
2021/10/25 05:01:48;;;;;;;0.60;0.60;;;;;;;5.13;93.87;101380.84;5086351;28;20220;-73
2021/10/25 05:04:18;;;;;;;0.70;0.70;;;;;;;5.15;93.65;101368.81;5052411;28;20212;-73
2021/10/25 05:06:45;;;;;;;0.60;0.60;;;;;;;5.12;93.51;101376.56;5069475;28;20670;-74
2021/10/25 05:09:14;;;;;;;1.13;1.10;;;;;;;5.15;93.38;101373.94;5052356;28;20240;-73
2021/10/25 05:11:42;;;;;;;0.60;0.60;;;;;;;5.13;93.15;101373.97;5085757;28;20236;-73
2021/10/25 05:14:10;;;;;;;0.60;0.60;;;;;;;5.03;93.31;101374.19;5058053;28;20219;-73
2021/10/25 05:16:39;;;;;;;0.60;0.60;;;;;;;5.01;93.60;101376.75;5086241;28;20601;-71
2021/10/25 05:19:08;;;;;;;0.93;0.93;;;;;;;5.12;93.83;101376.56;5086071;28;20427;-75
2021/10/25 05:21:39;;;;;;;0.60;0.60;;;;;;;4.97;93.72;101371.69;5050597;28;20216;-73
2021/10/25 05:24:06;;;;;;;0.60;0.60;;;;;;;4.97;93.85;101369.97;5069101;28;20307;-75
2021/10/25 05:26:34;;;;;;;0.80;0.80;;;;;;;4.92;94.47;101375.22;5052717;28;20188;-75
2021/10/25 05:29:02;;;;;;;0.70;0.60;;;;;;;4.93;94.15;101366.59;5085805;28;20197;-72
2021/10/25 05:31:29;;;;;;;0.70;0.70;;;;;;;4.93;93.96;101371.75;5085646;28;20440;-74
2021/10/25 05:33:57;;;;;;;0.85;0.85;;;;;;;5.00;93.63;101369.06;5053558;28;20717;-74
2021/10/25 05:36:24;;;;;;;1.20;1.10;;;;;;;5.06;93.49;101366.41;5068507;28;20193;-72
2021/10/25 05:38:53;;;;;;;0.60;0.60;;;;;;;5.09;93.10;101362.03;5053175;28;20616;-73
2021/10/25 05:41:21;;;;;;;1.30;1.20;;;;;;;5.04;93.47;101363.00;5068861;28;20575;-72
2021/10/25 05:43:48;;;;;;;0.60;0.50;;;;;;;5.05;93.14;101355.25;5035679;28;20506;-72
2021/10/25 05:46:16;;;;;;;0.60;0.60;;;;;;;5.03;93.38;101351.03;5068701;28;20198;-73
2021/10/25 05:48:43;;;;;;;0.60;0.60;;;;;;;4.97;93.92;101353.69;5068793;28;20190;-73
2021/10/25 05:51:13;;;;;;;0.80;0.80;;;;;;;4.86;94.16;101353.88;5068096;28;20189;-73
2021/10/25 05:53:41;;;;;;;0.60;0.60;;;;;;;4.79;94.93;101348.00;5067987;28;20266;-73
2021/10/25 05:56:09;;;;;;;0.60;0.60;;;;;;;4.86;94.75;101354.72;5052821;28;20586;-73
2021/10/25 05:58:37;;;;;;;0.60;0.60;;;;;;;4.83;94.67;101359.09;5051669;28;20204;-73
2021/10/25 06:01:08;;;;;;;0.60;0.60;;;;;;;4.82;95.02;101355.66;5034301;28;20210;-72
2021/10/25 06:04:04;;;;;;;0.60;0.50;;;;;;;4.90;94.55;101360.66;5082630;28;20320;-74
2021/10/25 06:06:33;;;;;;;1.02;0.98;;;;;;;5.02;94.45;101352.75;5068524;28;20711;-74
2021/10/25 06:09:03;;;;;;;0.70;0.60;;;;;;;5.06;93.37;101358.66;5084851;28;20222;-73
2021/10/25 06:11:34;;;;;;;0.60;0.60;;;;;;;5.11;93.24;101367.16;5085054;28;20448;-72
2021/10/25 06:14:05;;;;;;;0.60;0.60;;;;;;;5.13;93.26;101365.41;5084290;28;20193;-73
2021/10/25 06:16:37;;;;;;;0.60;0.50;;;;;;;5.14;93.31;101375.69;5068102;28;20246;-73
2021/10/25 06:19:06;;;;;;;0.60;0.60;;;;;;;5.05;93.35;101370.69;5051257;28;20284;-74
2021/10/25 06:21:35;;;;;;;0.60;0.60;;;;;;;5.07;92.99;101368.06;5050721;28;20847;-74
2021/10/25 06:24:02;;;;;;;0.60;0.60;;;;;;;5.00;93.47;101367.34;5050963;28;20840;-74
2021/10/25 06:26:52;;;;;;;0.60;0.60;;;;;;;5.03;93.25;101371.59;5051238;28;20201;-74
2021/10/25 06:29:22;;;;;;;0.70;0.70;;;;;;;5.05;93.63;101375.84;5051234;28;20217;-73
2021/10/25 06:31:51;;;;;;;0.73;0.70;;;;;;;5.16;92.72;101370.47;5051397;28;20197;-74
2021/10/25 06:34:26;;;;;;;0.70;0.70;;;;;;;5.20;92.51;101373.88;5088238;28;20613;-73
2021/10/25 06:36:58;;;;;;;0.70;0.70;;;;;;;5.10;92.75;101368.03;5056402;28;20231;-74
2021/10/25 06:39:39;;;;;;;0.60;0.60;;;;;;;5.11;93.46;101380.84;5089093;28;20205;-74
2021/10/25 06:42:10;;;;;;;0.70;0.70;;;;;;;5.19;92.45;101374.72;5088755;28;20240;-73
2021/10/25 06:45:00;;;;;;;0.60;0.60;;;;;;;5.18;92.78;101379.03;5071624;28;20490;-73
2021/10/25 06:47:35;;;;;;;0.60;0.60;;;;;;;5.21;92.36;101378.97;5056253;28;20557;-73
2021/10/25 06:50:05;;;;;;;0.60;0.60;;;;;;;5.16;92.48;101383.34;5087574;28;20529;-75
2021/10/25 06:52:44;;;;;;;1.30;1.20;;;;;;;5.17;92.31;101385.06;5071497;28;20559;-73
2021/10/25 06:55:11;;;;;;;0.70;0.60;;;;;;;5.18;91.98;101384.19;5054907;28;20186;-73
2021/10/25 06:57:45;;;;;;;0.60;0.60;;;;;;;5.17;92.20;101385.06;5055191;28;20217;-73
2021/10/25 07:00:14;;;;;;;0.70;0.60;;;;;;;5.14;92.67;101390.25;5070819;28;21103;-73
2021/10/25 07:02:42;;;;;;;0.67;0.60;;;;;;;5.18;92.58;101394.47;5088092;28;20720;-73
2021/10/25 07:05:14;;;;;;;0.60;0.60;;;;;;;5.17;92.27;101392.78;5071554;28;20435;-73
2021/10/25 07:07:42;;;;;;;0.70;0.70;;;;;;;5.16;92.54;101396.22;5054409;28;20240;-73
2021/10/25 07:10:10;;;;;;;0.60;0.60;;;;;;;5.22;92.73;101396.13;5071190;28;20212;-73
2021/10/25 07:12:46;;;;;;;0.77;0.77;;;;;;;5.22;92.09;101398.69;5072813;28;20593;-73
2021/10/25 07:15:15;;;;;;;0.60;0.50;;;;;;;5.30;92.14;101401.13;5071278;28;20471;-73
2021/10/25 07:17:58;;;;;;;0.60;0.60;;;;;;;5.32;92.24;101395.06;5087369;28;20440;-73
2021/10/25 07:20:38;;;;;;;0.60;0.60;;;;;;;5.37;92.45;101393.25;5054458;28;20658;-74
2021/10/25 08:00:13;;;;;;;0.70;0.70;;;;;;;6.22;88.74;101392.41;5069814;28;20189;-74
2021/10/25 08:08:29;;;;;;;0.70;0.60;;;;;;;6.41;88.13;101403.13;5070415;28;20244;-72
2021/10/25 08:11:06;;;;;;;0.60;0.60;;;;;;;6.48;89.64;101400.41;5086560;28;20829;-74
2021/10/25 08:13:43;;;;;;;0.60;0.57;;;;;;;6.69;88.00;101399.03;5086010;28;20457;-75
2021/10/25 08:16:20;;;;;;;0.60;0.60;;;;;;;6.82;88.19;101395.28;5068118;28;20428;-75
2021/10/25 08:21:20;;;;;;;0.83;0.83;;;;;;;7.03;87.49;101402.47;5053679;28;20454;-73
2021/10/25 08:23:50;;;;;;;2.40;0.90;;;;;;;7.15;86.51;101398.72;5053218;28;20470;-74
2021/10/25 08:26:40;;;;;;;0.60;0.60;;;;;;;7.30;85.36;101392.31;5043977;28;20440;-73
2021/10/25 08:29:07;;;;;;;0.70;0.60;;;;;;;7.55;84.98;101395.06;5053033;28;20944;-74
2021/10/25 08:31:37;;;;;;;0.60;0.53;;;;;;;7.68;84.04;101395.56;5086505;28;20515;-73
2021/10/25 08:39:53;;;;;;;0.60;0.53;;;;;;;8.28;82.67;101392.06;5053034;28;20450;-75
2021/10/25 08:42:28;;;;;;;0.70;0.60;;;;;;;8.46;80.14;101395.00;5069336;28;20456;-75
2021/10/25 08:45:16;;;;;;;0.63;0.60;;;;;;;8.56;80.60;101396.38;5053115;28;20458;-74
2021/10/25 08:47:50;;;;;;;0.60;0.50;;;;;;;8.77;79.75;101387.94;5073036;28;20482;-74
2021/10/25 08:50:22;;;;;;;0.70;0.60;;;;;;;9.02;79.97;101393.13;5069545;28;20768;-74
2021/10/25 08:52:49;;;;;;;0.70;0.60;;;;;;;9.31;78.09;101395.56;5052669;28;20458;-74
2021/10/25 08:55:19;;;;;;;1.20;1.10;;;;;;;9.36;77.65;101391.09;5069282;28;20444;-74
2021/10/25 08:57:48;;;;;;;0.70;0.60;;;;;;;9.55;78.58;101381.75;5052999;28;20442;-74
2021/10/25 09:00:19;;;;;;;0.80;0.70;;;;;;;9.68;76.22;101382.16;5069233;28;20438;-74
2021/10/25 09:03:16;;;;;;;0.70;0.60;;;;;;;9.53;75.94;101383.56;5085947;28;20472;-74
2021/10/25 09:05:56;;;;;;;1.03;0.93;;;;;;;9.94;76.15;101383.75;5085627;28;20429;-74
2021/10/25 09:08:23;;;;;;;0.70;0.60;;;;;;;10.03;76.25;101382.56;5086201;28;20888;-74
2021/10/25 09:10:51;;;;;;;1.43;1.33;;;;;;;10.17;79.45;101388.06;5085839;28;20440;-74
2021/10/25 09:13:24;;;;;;;0.87;0.87;;;;;;;10.24;74.24;101383.47;5085779;28;20840;-75
2021/10/25 09:15:53;;;;;;;0.70;0.60;;;;;;;10.79;73.49;101377.84;5069091;28;20432;-74
2021/10/25 09:18:46;;;;;;;0.70;0.60;;;;;;;11.07;75.23;101382.69;5045073;28;20487;-75
2021/10/25 09:21:18;;;;;;;1.37;1.27;;;;;;;11.12;72.85;101373.81;5068410;28;20498;-74
2021/10/25 09:23:50;;;;;;;0.70;0.60;;;;;;;11.04;72.74;101370.69;5052189;28;20993;-75
2021/10/25 09:26:20;;;;;;;1.20;1.10;;;;;;;11.37;72.82;101370.97;5051879;28;20523;-75
2021/10/25 09:28:51;;;;;;;1.20;1.10;;;;;;;11.44;72.34;101365.50;5051956;28;20435;-75
2021/10/25 09:31:26;;;;;;;0.70;0.63;;;;;;;12.08;72.52;101365.19;5035638;28;20509;-75
2021/10/25 09:33:56;;;;;;;1.57;1.37;;;;;;;11.68;69.96;101367.00;5034958;28;20451;-75
2021/10/25 09:36:51;;;;;;;1.00;0.90;;;;;;;11.62;71.90;101369.88;5085737;28;20437;-75
2021/10/25 09:50:24;;;;;;;0.80;0.70;;;;;;;12.81;65.99;101352.94;5079392;28;20451;-74
2021/10/25 09:52:57;;;;;;;0.70;0.60;;;;;;;12.92;70.01;101354.97;5068272;28;20887;-74
2021/10/25 09:55:25;;;;;;;0.70;0.70;;;;;;;12.87;67.46;101349.16;5052037;28;20535;-74
2021/10/25 09:58:04;;;;;;;1.00;0.90;;;;;;;12.92;70.03;101346.31;5051939;28;20936;-74
2021/10/25 10:00:40;;;;;;;1.40;1.20;;;;;;;13.09;66.79;101341.91;5050301;28;20453;-74
2021/10/25 10:03:15;;;;;;;0.90;0.80;;;;;;;13.58;67.23;101338.50;5068327;28;20525;-74
2021/10/25 10:06:01;;;;;;;1.00;0.90;;;;;;;13.38;66.52;101331.75;5085198;28;20440;-74
2021/10/25 10:08:39;;;;;;;1.43;1.33;;;;;;;13.33;67.31;101339.00;5067559;28;20462;-74
2021/10/25 10:11:16;;;;;;;1.33;0.90;;;;;;;13.58;63.21;101332.47;5084334;28;20454;-73
2021/10/25 10:13:43;;;;;;;0.80;0.70;;;;;;;13.26;64.83;101335.00;5068147;28;20444;-73
2021/10/25 10:16:17;;;;;;;14.17;1.93;;;;;;;13.22;64.22;101336.91;5051045;28;20810;-73
2021/10/25 10:18:52;;;;;;;1.30;1.20;;;;;;;13.23;64.96;101342.97;5052022;28;20523;-72
2021/10/25 10:21:31;;;;;;;0.90;0.70;;;;;;;13.25;64.01;101341.09;5036032;28;20452;-73
2021/10/25 10:24:09;;;;;;;0.80;0.70;;;;;;;13.94;64.09;101350.47;5084629;28;20895;-73
2021/10/25 10:26:41;;;;;;;0.70;0.60;;;;;;;14.58;62.73;101341.63;5068141;28;20899;-73
2021/10/25 10:29:17;;;;;;;0.70;0.57;;;;;;;14.41;62.84;101338.28;5068315;28;20464;-72
2021/10/25 10:32:14;;;;;;;0.70;0.70;;;;;;;14.79;59.88;101334.28;5062729;28;20799;-73
2021/10/25 10:35:09;;;;;;;0.80;0.70;;;;;;;15.65;58.07;101326.44;5048783;28;20440;-72
2021/10/25 10:38:00;;;;;;;0.70;0.60;;;;;;;15.37;59.18;101334.31;5052797;28;20446;-72
2021/10/25 10:40:39;;;;;;;0.70;0.60;;;;;;;15.84;61.66;101333.13;5051491;28;20451;-74
2021/10/25 10:43:32;;;;;;;0.80;0.70;;;;;;;15.85;56.50;101327.81;5052130;28;20464;-73
2021/10/25 10:46:12;;;;;;;0.80;0.70;;;;;;;15.60;57.79;101327.63;5051328;28;20872;-73
2021/10/25 10:48:44;;;;;;;0.80;0.80;;;;;;;16.18;58.44;101325.72;5052297;28;20987;-73
2021/10/25 10:51:12;;;;;;;0.70;0.60;;;;;;;15.86;57.01;101326.03;5052491;28;20428;-73
2021/10/25 10:53:58;;;;;;;0.70;0.60;;;;;;;14.76;60.05;101325.78;5068182;28;20406;-73
2021/10/25 10:56:30;;;;;;;0.80;0.80;;;;;;;15.18;61.58;101321.50;5052348;28;20408;-73
2021/10/25 11:01:31;;;;;;;0.80;0.77;;;;;;;15.52;59.81;101328.13;5051360;28;20445;-72
2021/10/25 11:04:03;;;;;;;1.33;1.23;;;;;;;16.17;58.73;101317.03;5084314;28;20426;-73
2021/10/25 11:06:30;;;;;;;0.80;0.73;;;;;;;15.84;57.18;101317.41;5052554;28;20387;-72
2021/10/25 11:09:07;;;;;;;0.80;0.70;;;;;;;15.36;59.19;101315.16;5052175;28;20414;-73
2021/10/25 11:11:39;;;;;;;0.80;0.70;;;;;;;14.83;60.08;101315.81;5084941;28;20517;-73
2021/10/25 11:14:13;;;;;;;1.33;1.23;;;;;;;14.59;59.83;101313.72;5067420;28;20401;-73
2021/10/25 11:17:08;;;;;;;0.77;0.70;;;;;;;14.61;60.48;101300.56;5052263;28;20896;-73
2021/10/25 11:19:44;;;;;;;1.17;1.07;;;;;;;14.85;60.57;101295.66;5052693;28;20466;-72
2021/10/25 11:22:11;;;;;;;0.80;0.77;;;;;;;15.05;61.92;101300.50;5067418;28;20425;-72
2021/10/25 11:24:38;;;;;;;0.70;0.60;;;;;;;15.53;59.25;101293.19;5036504;28;20388;-72
2021/10/25 11:27:07;;;;;;;0.70;0.70;;;;;;;16.11;58.03;101293.00;5051251;28;20449;-73
2021/10/25 11:29:36;;;;;;;0.70;0.70;;;;;;;16.26;57.17;101284.97;5035432;28;20417;-73
2021/10/25 11:32:06;;;;;;;0.70;0.63;;;;;;;16.64;56.23;101286.81;5035670;28;20421;-73
2021/10/25 11:34:38;;;;;;;0.70;0.60;;;;;;;16.87;55.99;101285.25;5035951;28;20421;-73
2021/10/25 11:37:09;;;;;;;0.70;0.60;;;;;;;16.80;55.21;101277.94;5086732;28;20442;-73
2021/10/25 11:40:14;;;;;;;0.70;0.70;;;;;;;16.64;54.95;101275.50;5070621;28;20470;-73
2021/10/25 11:42:35;;;;;;;1.00;0.90;;;;;;;16.66;57.26;101277.06;5049110;28;20496;-73
2021/10/25 11:45:06;;;;;;;0.70;0.60;;;;;;;16.34;57.55;101270.53;5070555;28;20458;-73
2021/10/25 11:47:35;;;;;;;0.80;0.77;;;;;;;16.72;58.42;101271.38;5055035;28;20388;-73
2021/10/25 11:50:05;;;;;;;0.73;0.67;;;;;;;16.56;56.59;101262.06;5053883;28;20527;-73
2021/10/25 11:52:39;;;;;;;0.70;0.60;;;;;;;16.36;58.78;101266.84;5055040;28;20477;-73
2021/10/25 11:55:07;;;;;;;0.73;0.63;;;;;;;16.52;60.35;101263.22;5055197;28;20512;-73
2021/10/25 11:57:36;;;;;;;0.70;0.60;;;;;;;16.71;55.37;101263.66;5070521;28;20446;-73
2021/10/25 12:00:09;;;;;;;0.80;0.70;;;;;;;17.04;57.97;101255.25;5069931;28;20463;-73
2021/10/25 12:02:39;;;;;;;0.70;0.70;;;;;;;17.13;55.40;101254.59;5055721;28;20419;-73
2021/10/25 12:05:08;;;;;;;0.70;0.63;;;;;;;17.17;54.67;101252.59;5087487;28;20432;-73
2021/10/25 12:07:46;;;;;;;0.97;0.77;;;;;;;17.73;54.45;101244.22;5053488;28;20463;-73
2021/10/25 12:10:14;;;;;;;0.80;0.70;;;;;;;19.05;52.44;101244.75;5053705;28;20425;-73
2021/10/25 12:12:44;;;;;;;0.70;0.70;;;;;;;18.65;49.51;101237.31;5054946;28;20391;-73
2021/10/25 12:15:16;;;;;;;0.70;0.60;;;;;;;18.41;52.30;101237.41;5052918;28;20402;-73
2021/10/25 12:17:45;;;;;;;0.80;0.70;;;;;;;17.95;52.29;101241.69;5054304;28;20883;-72
2021/10/25 12:20:22;;;;;;;0.80;0.77;;;;;;;17.71;53.20;101231.22;5053976;28;20449;-73
2021/10/25 12:22:58;;;;;;;0.80;0.80;;;;;;;17.70;54.70;101229.50;5054365;28;20449;-73
2021/10/25 12:25:26;;;;;;;0.70;0.60;;;;;;;17.61;53.07;101218.84;5069332;28;20750;-74
2021/10/25 12:27:59;;;;;;;0.80;0.70;;;;;;;17.21;54.98;101222.56;5054582;28;20506;-74
2021/10/25 12:30:28;;;;;;;0.80;0.70;;;;;;;17.29;53.64;101222.03;5054043;28;20425;-74
2021/10/25 12:32:57;;;;;;;0.70;0.60;;;;;;;17.34;56.56;101219.91;5070089;28;20383;-74
2021/10/25 12:35:30;;;;;;;0.77;0.73;;;;;;;17.56;56.67;101216.56;5069362;28;20883;-74
2021/10/25 12:37:59;;;;;;;0.80;0.73;;;;;;;17.46;55.38;101218.19;5065067;28;20542;-75
2021/10/25 12:40:26;;;;;;;0.80;0.80;;;;;;;17.54;53.75;101206.19;5054516;28;20459;-73
2021/10/25 12:43:03;;;;;;;0.70;0.67;;;;;;;17.96;53.96;101208.41;5053837;28;20463;-73
2021/10/25 12:45:37;;;;;;;0.73;0.63;;;;;;;18.09;54.10;101214.41;5054144;28;20557;-73
2021/10/25 12:48:05;;;;;;;0.80;0.70;;;;;;;17.89;51.20;101201.94;5069822;28;20417;-74
2021/10/25 12:50:33;;;;;;;0.70;0.60;;;;;;;18.09;52.97;101201.28;5054344;28;20773;-73
2021/10/25 12:53:05;;;;;;;0.80;0.67;;;;;;;17.81;53.65;101207.78;5054131;28;20453;-73
2021/10/25 12:55:32;;;;;;;0.70;0.70;;;;;;;17.36;53.99;101204.88;5053481;28;20452;-73
2021/10/25 12:58:01;;;;;;;0.80;0.70;;;;;;;17.10;55.62;101205.00;5054027;28;20455;-73
2021/10/25 13:00:28;;;;;;;0.80;0.67;;;;;;;17.12;55.80;101202.22;5052830;28;20406;-73
2021/10/25 13:02:56;;;;;;;0.90;0.70;;;;;;;17.10;57.76;101193.66;5053835;28;20456;-74
2021/10/25 13:05:25;;;;;;;0.80;0.70;;;;;;;17.08;56.63;101192.94;5053950;28;20420;-74
2021/10/25 13:07:54;;;;;;;0.70;0.60;;;;;;;17.25;55.40;101196.97;5068931;28;20497;-74
2021/10/25 13:10:23;;;;;;;0.80;0.70;;;;;;;17.47;54.20;101191.84;5085962;28;20444;-73
2021/10/25 13:12:51;;;;;;;1.30;1.20;;;;;;;17.42;57.77;101193.09;5069166;28;20411;-73
2021/10/25 13:15:23;;;;;;;0.80;0.80;;;;;;;17.06;57.23;101189.56;5053385;28;20391;-73
2021/10/25 13:17:52;;;;;;;2.10;0.90;;;;;;;17.03;55.64;101197.66;5052882;28;20808;-74
2021/10/25 13:20:21;;;;;;;0.93;0.83;;;;;;;17.06;58.69;101192.19;5067587;28;20474;-74
2021/10/25 13:22:49;;;;;;;0.80;0.70;;;;;;;16.92;56.24;101191.38;5051186;28;20476;-74
2021/10/25 13:25:17;;;;;;;0.70;0.60;;;;;;;16.63;56.16;101198.63;5068972;28;21022;-73
2021/10/25 13:27:45;;;;;;;0.70;0.60;;;;;;;16.77;57.46;101196.84;5050064;28;20418;-73
2021/10/25 13:30:13;;;;;;;0.80;0.70;;;;;;;16.70;59.73;101199.03;5083194;28;20531;-73
2021/10/25 13:32:43;;;;;;;0.70;0.60;;;;;;;16.60;59.54;101198.00;5052698;28;20408;-73
2021/10/25 13:35:11;;;;;;;0.80;0.80;;;;;;;16.65;59.29;101195.91;5067043;28;20425;-72